sensor_id;sensor_type;location;lat;lon;timestamp;pressure;altitude;pressure_sealevel;temperature;humidity
11678;BME280;5895;41.950;24.372;2023-12-22T00:01:56;85289.59;;;-1.22;65.16
11678;BME280;5895;41.950;24.372;2023-12-22T00:04:23;85287.06;;;-1.22;65.48
11678;BME280;5895;41.950;24.372;2023-12-22T00:06:50;85281.75;;;-1.20;64.80
11678;BME280;5895;41.950;24.372;2023-12-22T00:09:18;85287.63;;;-1.20;64.83
11678;BME280;5895;41.950;24.372;2023-12-22T00:11:45;85280.22;;;-1.28;64.21
11678;BME280;5895;41.950;24.372;2023-12-22T00:14:13;85273.56;;;-1.29;64.92
11678;BME280;5895;41.950;24.372;2023-12-22T00:16:40;85271.81;;;-1.28;65.33
11678;BME280;5895;41.950;24.372;2023-12-22T00:19:07;85260.25;;;-1.31;64.68
11678;BME280;5895;41.950;24.372;2023-12-22T00:21:34;85261.81;;;-1.30;64.98
11678;BME280;5895;41.950;24.372;2023-12-22T00:24:01;85259.09;;;-1.28;64.73
11678;BME280;5895;41.950;24.372;2023-12-22T00:26:28;85255.94;;;-1.24;66.62
11678;BME280;5895;41.950;24.372;2023-12-22T00:28:55;85237.91;;;-1.16;66.79
11678;BME280;5895;41.950;24.372;2023-12-22T00:31:23;85244.16;;;-1.05;66.39
11678;BME280;5895;41.950;24.372;2023-12-22T00:33:50;85241.75;;;-0.93;67.01
11678;BME280;5895;41.950;24.372;2023-12-22T00:36:17;85241.34;;;-0.84;65.91
11678;BME280;5895;41.950;24.372;2023-12-22T00:38:48;85246.78;;;-0.80;65.70
11678;BME280;5895;41.950;24.372;2023-12-22T00:41:15;85244.63;;;-0.76;65.38
11678;BME280;5895;41.950;24.372;2023-12-22T00:43:42;85239.31;;;-0.75;65.66
11678;BME280;5895;41.950;24.372;2023-12-22T00:46:09;85252.66;;;-0.73;66.29
11678;BME280;5895;41.950;24.372;2023-12-22T00:48:37;85242.06;;;-0.70;66.27
11678;BME280;5895;41.950;24.372;2023-12-22T00:51:05;85235.63;;;-0.72;65.92
11678;BME280;5895;41.950;24.372;2023-12-22T00:53:33;85235.78;;;-0.74;66.00
11678;BME280;5895;41.950;24.372;2023-12-22T00:56:00;85230.69;;;-0.74;65.91
11678;BME280;5895;41.950;24.372;2023-12-22T00:58:28;85229.97;;;-0.81;65.98
11678;BME280;5895;41.950;24.372;2023-12-22T01:00:55;85240.13;;;-0.81;66.04
11678;BME280;5895;41.950;24.372;2023-12-22T01:03:22;85242.13;;;-0.83;65.92
11678;BME280;5895;41.950;24.372;2023-12-22T01:05:51;85225.28;;;-0.84;66.27
11678;BME280;5895;41.950;24.372;2023-12-22T01:08:17;85217.81;;;-0.86;65.84
11678;BME280;5895;41.950;24.372;2023-12-22T01:10:46;85223.34;;;-0.89;66.11
11678;BME280;5895;41.950;24.372;2023-12-22T01:13:13;85217.47;;;-0.89;66.21
11678;BME280;5895;41.950;24.372;2023-12-22T01:15:40;85210.00;;;-0.84;66.47
11678;BME280;5895;41.950;24.372;2023-12-22T01:18:09;85211.16;;;-0.80;67.21
11678;BME280;5895;41.950;24.372;2023-12-22T01:20:36;85209.00;;;-0.76;67.04
11678;BME280;5895;41.950;24.372;2023-12-22T01:23:04;85200.75;;;-0.72;67.57
11678;BME280;5895;41.950;24.372;2023-12-22T01:25:31;85197.81;;;-0.75;66.78
11678;BME280;5895;41.950;24.372;2023-12-22T01:27:58;85197.59;;;-0.74;67.02
11678;BME280;5895;41.950;24.372;2023-12-22T01:30:25;85189.16;;;-0.68;67.43
11678;BME280;5895;41.950;24.372;2023-12-22T01:32:52;85187.16;;;-0.59;67.54
11678;BME280;5895;41.950;24.372;2023-12-22T01:35:19;85183.22;;;-0.55;67.00
11678;BME280;5895;41.950;24.372;2023-12-22T01:37:46;85176.91;;;-0.52;66.75
11678;BME280;5895;41.950;24.372;2023-12-22T01:40:16;85167.72;;;-0.54;66.16
11678;BME280;5895;41.950;24.372;2023-12-22T01:42:42;85170.28;;;-0.54;66.05
11678;BME280;5895;41.950;24.372;2023-12-22T01:45:11;85171.66;;;-0.58;66.66
11678;BME280;5895;41.950;24.372;2023-12-22T01:47:38;85169.53;;;-0.61;66.65
11678;BME280;5895;41.950;24.372;2023-12-22T01:50:06;85166.03;;;-0.66;66.30
11678;BME280;5895;41.950;24.372;2023-12-22T01:52:36;85170.75;;;-0.70;66.34
11678;BME280;5895;41.950;24.372;2023-12-22T01:55:04;85168.41;;;-0.71;66.14
11678;BME280;5895;41.950;24.372;2023-12-22T01:57:33;85171.19;;;-0.73;66.29
11678;BME280;5895;41.950;24.372;2023-12-22T02:00:01;85172.13;;;-0.74;66.95
11678;BME280;5895;41.950;24.372;2023-12-22T02:02:29;85167.66;;;-0.72;66.66
11678;BME280;5895;41.950;24.372;2023-12-22T02:04:57;85162.13;;;-0.69;67.50
11678;BME280;5895;41.950;24.372;2023-12-22T02:07:24;85161.34;;;-0.69;67.33
11678;BME280;5895;41.950;24.372;2023-12-22T02:09:51;85155.84;;;-0.66;67.95
11678;BME280;5895;41.950;24.372;2023-12-22T02:12:18;85158.41;;;-0.66;67.92
11678;BME280;5895;41.950;24.372;2023-12-22T02:14:47;85158.97;;;-0.64;67.71
11678;BME280;5895;41.950;24.372;2023-12-22T02:17:20;85157.78;;;-0.62;68.10
11678;BME280;5895;41.950;24.372;2023-12-22T02:19:50;85148.34;;;-0.55;67.95
11678;BME280;5895;41.950;24.372;2023-12-22T02:22:17;85153.38;;;-0.48;67.20
11678;BME280;5895;41.950;24.372;2023-12-22T02:24:46;85146.31;;;-0.46;67.85
11678;BME280;5895;41.950;24.372;2023-12-22T02:27:38;85139.03;;;-0.42;68.73
11678;BME280;5895;41.950;24.372;2023-12-22T02:30:09;85138.66;;;-0.39;68.23
11678;BME280;5895;41.950;24.372;2023-12-22T02:32:42;85138.00;;;-0.35;68.20
11678;BME280;5895;41.950;24.372;2023-12-22T02:35:11;85138.78;;;-0.34;68.24
11678;BME280;5895;41.950;24.372;2023-12-22T02:37:40;85129.41;;;-0.40;67.70
11678;BME280;5895;41.950;24.372;2023-12-22T02:40:09;85137.84;;;-0.40;67.97
11678;BME280;5895;41.950;24.372;2023-12-22T02:42:38;85127.47;;;-0.38;68.42
11678;BME280;5895;41.950;24.372;2023-12-22T02:45:06;85118.41;;;-0.34;68.27
11678;BME280;5895;41.950;24.372;2023-12-22T02:47:39;85116.22;;;-0.31;67.87
11678;BME280;5895;41.950;24.372;2023-12-22T02:50:07;85110.66;;;-0.21;69.20
11678;BME280;5895;41.950;24.372;2023-12-22T02:52:34;85120.53;;;-0.06;69.83
11678;BME280;5895;41.950;24.372;2023-12-22T02:55:01;85118.06;;;0.06;68.94
11678;BME280;5895;41.950;24.372;2023-12-22T02:57:29;85098.41;;;0.13;69.22
11678;BME280;5895;41.950;24.372;2023-12-22T02:59:56;85093.03;;;0.21;68.91
11678;BME280;5895;41.950;24.372;2023-12-22T03:02:23;85109.75;;;0.35;68.49
11678;BME280;5895;41.950;24.372;2023-12-22T03:04:51;85115.00;;;0.40;67.07
11678;BME280;5895;41.950;24.372;2023-12-22T03:07:17;85120.97;;;0.34;67.46
11678;BME280;5895;41.950;24.372;2023-12-22T03:09:44;85118.19;;;0.36;67.41
11678;BME280;5895;41.950;24.372;2023-12-22T03:12:11;85118.97;;;0.36;67.08
11678;BME280;5895;41.950;24.372;2023-12-22T03:14:40;85118.53;;;0.39;67.28
11678;BME280;5895;41.950;24.372;2023-12-22T03:17:07;85123.78;;;0.44;67.79
11678;BME280;5895;41.950;24.372;2023-12-22T03:19:36;85124.72;;;0.50;67.74
11678;BME280;5895;41.950;24.372;2023-12-22T03:22:03;85117.19;;;0.55;67.79
11678;BME280;5895;41.950;24.372;2023-12-22T03:24:30;85117.56;;;0.59;67.60
11678;BME280;5895;41.950;24.372;2023-12-22T03:26:57;85121.13;;;0.58;67.54
11678;BME280;5895;41.950;24.372;2023-12-22T03:29:24;85112.88;;;0.56;67.32
11678;BME280;5895;41.950;24.372;2023-12-22T03:31:52;85109.34;;;0.57;67.76
11678;BME280;5895;41.950;24.372;2023-12-22T03:34:19;85109.34;;;0.57;66.69
11678;BME280;5895;41.950;24.372;2023-12-22T03:36:46;85113.31;;;0.52;67.87
11678;BME280;5895;41.950;24.372;2023-12-22T03:39:14;85118.81;;;0.49;67.66
11678;BME280;5895;41.950;24.372;2023-12-22T03:41:41;85106.66;;;0.51;68.07
11678;BME280;5895;41.950;24.372;2023-12-22T03:44:08;85113.88;;;0.55;67.82
11678;BME280;5895;41.950;24.372;2023-12-22T03:46:35;85109.34;;;0.57;67.31
11678;BME280;5895;41.950;24.372;2023-12-22T03:49:03;85097.94;;;0.59;68.36
11678;BME280;5895;41.950;24.372;2023-12-22T03:51:30;85104.03;;;0.58;68.63
11678;BME280;5895;41.950;24.372;2023-12-22T03:53:57;85098.78;;;0.53;68.04
11678;BME280;5895;41.950;24.372;2023-12-22T03:56:24;85109.75;;;0.53;67.95
11678;BME280;5895;41.950;24.372;2023-12-22T03:58:51;85116.41;;;0.55;67.45
11678;BME280;5895;41.950;24.372;2023-12-22T04:01:18;85107.34;;;0.59;68.15
11678;BME280;5895;41.950;24.372;2023-12-22T04:03:45;85115.00;;;0.59;69.26
11678;BME280;5895;41.950;24.372;2023-12-22T04:06:14;85102.66;;;0.56;69.13
11678;BME280;5895;41.950;24.372;2023-12-22T04:08:41;85097.00;;;0.53;68.43
11678;BME280;5895;41.950;24.372;2023-12-22T04:11:07;85091.50;;;0.57;69.17
11678;BME280;5895;41.950;24.372;2023-12-22T04:13:34;85098.16;;;0.58;69.38
11678;BME280;5895;41.950;24.372;2023-12-22T04:16:01;85104.25;;;0.57;68.83
11678;BME280;5895;41.950;24.372;2023-12-22T04:18:30;85100.13;;;0.56;68.83
11678;BME280;5895;41.950;24.372;2023-12-22T04:20:58;85104.44;;;0.55;69.36
11678;BME280;5895;41.950;24.372;2023-12-22T04:23:26;85101.34;;;0.53;69.52
11678;BME280;5895;41.950;24.372;2023-12-22T04:25:53;85095.44;;;0.52;69.00
11678;BME280;5895;41.950;24.372;2023-12-22T04:28:20;85095.00;;;0.56;69.51
11678;BME280;5895;41.950;24.372;2023-12-22T04:30:47;85103.66;;;0.55;69.62
11678;BME280;5895;41.950;24.372;2023-12-22T04:33:14;85093.69;;;0.53;69.43
11678;BME280;5895;41.950;24.372;2023-12-22T04:35:41;85086.59;;;0.55;68.81
11678;BME280;5895;41.950;24.372;2023-12-22T04:38:08;85092.81;;;0.59;69.38
11678;BME280;5895;41.950;24.372;2023-12-22T04:40:36;85084.94;;;0.61;69.70
11678;BME280;5895;41.950;24.372;2023-12-22T04:43:03;85076.28;;;0.62;69.39
11678;BME280;5895;41.950;24.372;2023-12-22T04:45:30;85081.97;;;0.64;69.97
11678;BME280;5895;41.950;24.372;2023-12-22T04:47:57;85077.88;;;0.63;69.63
11678;BME280;5895;41.950;24.372;2023-12-22T04:50:24;85071.19;;;0.62;69.94
11678;BME280;5895;41.950;24.372;2023-12-22T04:52:51;85079.84;;;0.61;70.27
11678;BME280;5895;41.950;24.372;2023-12-22T04:55:18;85081.41;;;0.62;70.03
11678;BME280;5895;41.950;24.372;2023-12-22T04:57:47;85092.03;;;0.59;69.85
11678;BME280;5895;41.950;24.372;2023-12-22T05:00:14;85087.72;;;0.59;70.10
11678;BME280;5895;41.950;24.372;2023-12-22T05:02:41;85080.63;;;0.61;70.28
11678;BME280;5895;41.950;24.372;2023-12-22T05:05:09;85076.28;;;0.62;69.87
11678;BME280;5895;41.950;24.372;2023-12-22T05:07:37;85074.31;;;0.64;70.43
11678;BME280;5895;41.950;24.372;2023-12-22T05:10:05;85081.75;;;0.65;70.36
11678;BME280;5895;41.950;24.372;2023-12-22T05:12:32;85080.75;;;0.66;70.00
11678;BME280;5895;41.950;24.372;2023-12-22T05:15:01;85078.03;;;0.68;70.64
11678;BME280;5895;41.950;24.372;2023-12-22T05:17:28;85087.22;;;0.69;70.13
11678;BME280;5895;41.950;24.372;2023-12-22T05:19:55;85076.78;;;0.70;69.48
11678;BME280;5895;41.950;24.372;2023-12-22T05:22:22;85078.13;;;0.73;70.85
11678;BME280;5895;41.950;24.372;2023-12-22T05:24:49;85066.16;;;0.73;70.21
11678;BME280;5895;41.950;24.372;2023-12-22T05:27:16;85065.16;;;0.74;69.89
11678;BME280;5895;41.950;24.372;2023-12-22T05:29:43;85075.03;;;0.71;70.97
11678;BME280;5895;41.950;24.372;2023-12-22T05:32:11;85063.69;;;0.67;71.14
11678;BME280;5895;41.950;24.372;2023-12-22T05:34:38;85057.78;;;0.66;70.62
11678;BME280;5895;41.950;24.372;2023-12-22T05:37:05;85063.97;;;0.59;70.78
11678;BME280;5895;41.950;24.372;2023-12-22T05:39:32;85072.03;;;0.56;70.66
11678;BME280;5895;41.950;24.372;2023-12-22T05:41:59;85065.41;;;0.55;70.86
11678;BME280;5895;41.950;24.372;2023-12-22T05:44:26;85075.91;;;0.46;71.62
11678;BME280;5895;41.950;24.372;2023-12-22T05:46:55;85074.75;;;0.42;70.82
11678;BME280;5895;41.950;24.372;2023-12-22T05:49:24;85077.09;;;0.44;71.51
11678;BME280;5895;41.950;24.372;2023-12-22T05:51:51;85069.66;;;0.42;71.80
11678;BME280;5895;41.950;24.372;2023-12-22T05:54:18;85069.09;;;0.40;71.22
11678;BME280;5895;41.950;24.372;2023-12-22T05:56:45;85064.97;;;0.39;71.11
11678;BME280;5895;41.950;24.372;2023-12-22T05:59:12;85069.66;;;0.42;71.05
11678;BME280;5895;41.950;24.372;2023-12-22T06:01:39;85067.81;;;0.49;72.15
11678;BME280;5895;41.950;24.372;2023-12-22T06:04:06;85070.56;;;0.48;71.84
11678;BME280;5895;41.950;24.372;2023-12-22T06:06:36;85083.09;;;0.49;71.98
11678;BME280;5895;41.950;24.372;2023-12-22T06:09:03;85076.44;;;0.48;72.06
11678;BME280;5895;41.950;24.372;2023-12-22T06:11:30;85083.09;;;0.49;71.10
11678;BME280;5895;41.950;24.372;2023-12-22T06:13:57;85082.69;;;0.52;71.89
11678;BME280;5895;41.950;24.372;2023-12-22T06:16:24;85077.16;;;0.56;71.48
11678;BME280;5895;41.950;24.372;2023-12-22T06:18:51;85076.38;;;0.55;71.32
11678;BME280;5895;41.950;24.372;2023-12-22T06:21:18;85078.72;;;0.57;71.17
11678;BME280;5895;41.950;24.372;2023-12-22T06:23:47;85084.53;;;0.64;70.93
11678;BME280;5895;41.950;24.372;2023-12-22T06:26:14;85077.44;;;0.66;71.56
11678;BME280;5895;41.950;24.372;2023-12-22T06:28:40;85084.22;;;0.72;72.10
11678;BME280;5895;41.950;24.372;2023-12-22T06:31:08;85068.41;;;0.82;72.94
11678;BME280;5895;41.950;24.372;2023-12-22T06:33:35;85073.56;;;0.93;72.61
11678;BME280;5895;41.950;24.372;2023-12-22T06:36:02;85073.38;;;1.06;73.48
11678;BME280;5895;41.950;24.372;2023-12-22T06:38:30;85073.22;;;1.20;72.68
11678;BME280;5895;41.950;24.372;2023-12-22T06:40:59;85073.03;;;1.33;71.97
11678;BME280;5895;41.950;24.372;2023-12-22T06:43:26;85065.09;;;1.41;72.06
11678;BME280;5895;41.950;24.372;2023-12-22T06:45:53;85070.41;;;1.51;71.51
11678;BME280;5895;41.950;24.372;2023-12-22T06:48:20;85061.66;;;1.59;71.01
11678;BME280;5895;41.950;24.372;2023-12-22T06:50:47;85074.13;;;1.67;71.35
11678;BME280;5895;41.950;24.372;2023-12-22T06:53:14;85072.81;;;1.76;71.08
11678;BME280;5895;41.950;24.372;2023-12-22T06:55:41;85075.25;;;1.83;71.68
11678;BME280;5895;41.950;24.372;2023-12-22T06:58:10;85074.16;;;1.91;70.88
11678;BME280;5895;41.950;24.372;2023-12-22T07:00:36;85072.06;;;1.99;70.58
11678;BME280;5895;41.950;24.372;2023-12-22T07:03:04;85072.72;;;2.06;70.93
11678;BME280;5895;41.950;24.372;2023-12-22T07:05:33;85072.59;;;2.13;70.63
11678;BME280;5895;41.950;24.372;2023-12-22T07:08:04;85069.38;;;2.18;70.23
11678;BME280;5895;41.950;24.372;2023-12-22T07:10:31;85080.72;;;2.22;69.97
11678;BME280;5895;41.950;24.372;2023-12-22T07:12:58;85075.19;;;2.25;70.51
11678;BME280;5895;41.950;24.372;2023-12-22T07:15:26;85080.63;;;2.28;69.87
11678;BME280;5895;41.950;24.372;2023-12-22T07:17:54;85089.19;;;2.34;69.68
11678;BME280;5895;41.950;24.372;2023-12-22T07:20:21;85082.06;;;2.36;69.70
11678;BME280;5895;41.950;24.372;2023-12-22T07:22:48;85088.84;;;2.42;69.78
11678;BME280;5895;41.950;24.372;2023-12-22T07:25:16;85082.28;;;2.46;70.68
11678;BME280;5895;41.950;24.372;2023-12-22T07:27:44;85087.50;;;2.51;69.55
11678;BME280;5895;41.950;24.372;2023-12-22T07:30:13;85094.75;;;2.54;69.78
11678;BME280;5895;41.950;24.372;2023-12-22T07:32:45;85083.59;;;2.60;70.27
11678;BME280;5895;41.950;24.372;2023-12-22T07:35:17;85079.59;;;2.64;70.25
11678;BME280;5895;41.950;24.372;2023-12-22T07:37:44;85083.25;;;2.69;70.00
11678;BME280;5895;41.950;24.372;2023-12-22T07:40:12;85083.34;;;2.74;70.04
11678;BME280;5895;41.950;24.372;2023-12-22T07:42:39;85082.44;;;2.80;69.64
11678;BME280;5895;41.950;24.372;2023-12-22T07:45:06;85085.13;;;2.85;69.21
11678;BME280;5895;41.950;24.372;2023-12-22T07:47:34;85076.75;;;2.89;69.66
11678;BME280;5895;41.950;24.372;2023-12-22T07:50:05;85079.97;;;2.97;69.74
11678;BME280;5895;41.950;24.372;2023-12-22T07:52:34;85058.78;;;3.01;69.78
11678;BME280;5895;41.950;24.372;2023-12-22T07:55:05;85080.16;;;3.07;69.60
11678;BME280;5895;41.950;24.372;2023-12-22T07:57:32;85077.94;;;3.10;69.21
11678;BME280;5895;41.950;24.372;2023-12-22T07:59:59;85080.81;;;3.14;69.26
11678;BME280;5895;41.950;24.372;2023-12-22T08:02:26;85080.69;;;3.21;68.96
11678;BME280;5895;41.950;24.372;2023-12-22T08:04:53;85080.31;;;3.29;68.47
11678;BME280;5895;41.950;24.372;2023-12-22T08:07:22;85084.09;;;3.38;68.83
11678;BME280;5895;41.950;24.372;2023-12-22T08:09:49;85080.13;;;3.47;68.49
11678;BME280;5895;41.950;24.372;2023-12-22T08:12:16;85079.78;;;3.55;68.15
11678;BME280;5895;41.950;24.372;2023-12-22T08:14:43;85089.09;;;3.61;68.18
11678;BME280;5895;41.950;24.372;2023-12-22T08:17:10;85084.59;;;3.68;67.91
11678;BME280;5895;41.950;24.372;2023-12-22T08:19:38;85077.63;;;3.81;67.98
11678;BME280;5895;41.950;24.372;2023-12-22T08:22:09;85082.94;;;3.91;67.46
11678;BME280;5895;41.950;24.372;2023-12-22T08:24:37;85091.56;;;4.02;67.60
11678;BME280;5895;41.950;24.372;2023-12-22T08:27:04;85091.19;;;4.10;66.50
11678;BME280;5895;41.950;24.372;2023-12-22T08:29:32;85092.59;;;4.17;66.89
11678;BME280;5895;41.950;24.372;2023-12-22T08:31:59;85090.28;;;4.16;67.30
11678;BME280;5895;41.950;24.372;2023-12-22T08:34:27;85095.78;;;4.08;67.82
11678;BME280;5895;41.950;24.372;2023-12-22T08:36:54;85102.06;;;4.00;67.92
11678;BME280;5895;41.950;24.372;2023-12-22T08:39:20;85100.53;;;3.99;67.78
11678;BME280;5895;41.950;24.372;2023-12-22T08:41:51;85099.44;;;3.95;68.82
11678;BME280;5895;41.950;24.372;2023-12-22T08:44:18;85103.00;;;3.94;68.64
11678;BME280;5895;41.950;24.372;2023-12-22T08:46:46;85100.44;;;3.94;68.97
11678;BME280;5895;41.950;24.372;2023-12-22T08:49:13;85103.00;;;3.94;69.16
11678;BME280;5895;41.950;24.372;2023-12-22T08:51:39;85098.88;;;3.93;68.70
11678;BME280;5895;41.950;24.372;2023-12-22T08:54:07;85097.88;;;3.94;68.99
11678;BME280;5895;41.950;24.372;2023-12-22T08:56:34;85092.75;;;3.94;68.70
11678;BME280;5895;41.950;24.372;2023-12-22T08:59:03;85103.78;;;3.94;69.19
11678;BME280;5895;41.950;24.372;2023-12-22T09:01:30;85106.59;;;3.93;69.50
11678;BME280;5895;41.950;24.372;2023-12-22T09:03:57;85107.56;;;3.92;69.30
11678;BME280;5895;41.950;24.372;2023-12-22T09:06:24;85101.44;;;3.93;69.06
11678;BME280;5895;41.950;24.372;2023-12-22T09:08:52;85106.09;;;3.96;69.21
11678;BME280;5895;41.950;24.372;2023-12-22T09:11:20;85099.44;;;3.95;70.60
11678;BME280;5895;41.950;24.372;2023-12-22T09:13:47;85108.13;;;3.94;69.95
11678;BME280;5895;41.950;24.372;2023-12-22T09:16:20;85101.44;;;3.93;72.60
11678;BME280;5895;41.950;24.372;2023-12-22T09:18:47;85105.47;;;3.89;71.13
11678;BME280;5895;41.950;24.372;2023-12-22T09:21:15;85099.34;;;3.90;71.76
11678;BME280;5895;41.950;24.372;2023-12-22T09:23:43;85100.88;;;3.91;72.55
11678;BME280;5895;41.950;24.372;2023-12-22T09:26:12;85104.22;;;3.91;72.75
11678;BME280;5895;41.950;24.372;2023-12-22T09:28:39;85105.00;;;3.92;72.30
11678;BME280;5895;41.950;24.372;2023-12-22T09:31:07;85100.44;;;3.94;72.69
11678;BME280;5895;41.950;24.372;2023-12-22T09:33:35;85096.31;;;3.93;73.64
11678;BME280;5895;41.950;24.372;2023-12-22T09:36:03;85094.53;;;3.93;72.89
11678;BME280;5895;41.950;24.372;2023-12-22T09:38:30;85091.19;;;3.93;72.89
11678;BME280;5895;41.950;24.372;2023-12-22T09:40:57;85097.09;;;3.93;72.85
11678;BME280;5895;41.950;24.372;2023-12-22T09:43:24;85099.44;;;3.95;73.06
11678;BME280;5895;41.950;24.372;2023-12-22T09:45:52;85098.66;;;3.94;73.28
11678;BME280;5895;41.950;24.372;2023-12-22T09:48:20;85094.28;;;3.95;73.42
11678;BME280;5895;41.950;24.372;2023-12-22T09:50:54;85088.38;;;3.94;74.17
11678;BME280;5895;41.950;24.372;2023-12-22T09:53:21;85096.31;;;3.93;73.71
11678;BME280;5895;41.950;24.372;2023-12-22T09:55:49;85082.41;;;3.89;74.40
11678;BME280;5895;41.950;24.372;2023-12-22T09:58:17;85089.59;;;3.92;74.25
11678;BME280;5895;41.950;24.372;2023-12-22T10:00:44;85083.69;;;3.91;74.05
11678;BME280;5895;41.950;24.372;2023-12-22T10:03:12;85095.53;;;3.92;75.02
11678;BME280;5895;41.950;24.372;2023-12-22T10:05:40;85087.59;;;3.94;74.87
11678;BME280;5895;41.950;24.372;2023-12-22T10:08:10;85086.84;;;3.93;75.61
11678;BME280;5895;41.950;24.372;2023-12-22T10:10:38;85088.53;;;3.88;75.88
11678;BME280;5895;41.950;24.372;2023-12-22T10:13:06;85091.03;;;3.83;76.02
11678;BME280;5895;41.950;24.372;2023-12-22T10:15:36;85094.59;;;3.82;76.24
11678;BME280;5895;41.950;24.372;2023-12-22T10:18:06;85086.56;;;3.78;76.16
11678;BME280;5895;41.950;24.372;2023-12-22T10:20:34;85096.59;;;3.80;76.13
11678;BME280;5895;41.950;24.372;2023-12-22T10:23:02;85098.06;;;3.76;76.38
11678;BME280;5895;41.950;24.372;2023-12-22T10:25:30;85099.56;;;3.71;77.13
11678;BME280;5895;41.950;24.372;2023-12-22T10:27:58;85095.66;;;3.69;77.20
11678;BME280;5895;41.950;24.372;2023-12-22T10:30:25;85096.31;;;3.64;77.54
11678;BME280;5895;41.950;24.372;2023-12-22T10:32:54;85091.13;;;3.59;77.83
11678;BME280;5895;41.950;24.372;2023-12-22T10:35:21;85090.03;;;3.55;78.23
11678;BME280;5895;41.950;24.372;2023-12-22T10:37:48;85093.59;;;3.54;78.06
11678;BME280;5895;41.950;24.372;2023-12-22T10:40:18;85095.06;;;3.50;78.31
11678;BME280;5895;41.950;24.372;2023-12-22T10:42:48;85085.25;;;3.47;79.22
11678;BME280;5895;41.950;24.372;2023-12-22T10:45:15;85094.44;;;3.43;78.76
11678;BME280;5895;41.950;24.372;2023-12-22T10:47:43;85093.88;;;3.41;79.45
11678;BME280;5895;41.950;24.372;2023-12-22T10:50:12;85103.03;;;3.37;79.92
11678;BME280;5895;41.950;24.372;2023-12-22T10:52:39;85096.03;;;3.32;79.98
11678;BME280;5895;41.950;24.372;2023-12-22T10:55:06;85092.13;;;3.30;80.20
11678;BME280;5895;41.950;24.372;2023-12-22T10:57:34;85092.59;;;3.27;80.30
11678;BME280;5895;41.950;24.372;2023-12-22T11:00:06;85091.03;;;3.26;82.67
11678;BME280;5895;41.950;24.372;2023-12-22T11:02:34;85097.53;;;3.16;81.37
11678;BME280;5895;41.950;24.372;2023-12-22T11:05:04;85095.31;;;3.08;83.15
11678;BME280;5895;41.950;24.372;2023-12-22T11:07:33;85104.47;;;3.04;82.04
11678;BME280;5895;41.950;24.372;2023-12-22T11:10:03;85092.44;;;3.05;82.72
11678;BME280;5895;41.950;24.372;2023-12-22T11:12:31;85094.66;;;3.01;82.89
11678;BME280;5895;41.950;24.372;2023-12-22T11:15:00;85085.84;;;3.09;82.30
11678;BME280;5895;41.950;24.372;2023-12-22T11:17:30;85063.19;;;3.17;85.29
11678;BME280;5895;41.950;24.372;2023-12-22T11:19:59;85069.44;;;3.22;83.23
11678;BME280;5895;41.950;24.372;2023-12-22T11:22:26;85056.56;;;3.33;82.51
11678;BME280;5895;41.950;24.372;2023-12-22T11:24:55;85064.22;;;3.45;82.46
11678;BME280;5895;41.950;24.372;2023-12-22T11:27:25;85070.44;;;3.49;81.70
11678;BME280;5895;41.950;24.372;2023-12-22T11:29:53;85076.09;;;3.51;81.10
11678;BME280;5895;41.950;24.372;2023-12-22T11:32:21;85062.84;;;3.54;81.24
11678;BME280;5895;41.950;24.372;2023-12-22T11:34:50;85051.19;;;3.63;81.37
11678;BME280;5895;41.950;24.372;2023-12-22T11:37:18;85054.47;;;4.09;78.85
11678;BME280;5895;41.950;24.372;2023-12-22T11:39:45;85044.00;;;4.28;77.39
11678;BME280;5895;41.950;24.372;2023-12-22T11:42:17;85054.00;;;4.29;77.69
11678;BME280;5895;41.950;24.372;2023-12-22T11:44:45;85045.00;;;4.27;76.50
11678;BME280;5895;41.950;24.372;2023-12-22T11:47:14;85027.72;;;4.22;76.75
11678;BME280;5895;41.950;24.372;2023-12-22T11:49:41;85031.38;;;4.26;76.36
11678;BME280;5895;41.950;24.372;2023-12-22T11:52:14;85028.78;;;4.43;78.91
11678;BME280;5895;41.950;24.372;2023-12-22T11:54:45;85027.56;;;4.67;76.35
11678;BME280;5895;41.950;24.372;2023-12-22T11:57:32;85011.56;;;5.04;78.10
11678;BME280;5895;41.950;24.372;2023-12-22T12:00:02;85024.53;;;5.36;72.12
11678;BME280;5895;41.950;24.372;2023-12-22T12:02:32;85015.09;;;5.96;69.18
11678;BME280;5895;41.950;24.372;2023-12-22T12:04:59;85015.53;;;6.57;66.31
11678;BME280;5895;41.950;24.372;2023-12-22T12:07:42;85028.75;;;7.23;69.11
11678;BME280;5895;41.950;24.372;2023-12-22T12:10:11;85022.47;;;7.66;63.48
11678;BME280;5895;41.950;24.372;2023-12-22T12:12:39;85018.16;;;8.28;62.11
11678;BME280;5895;41.950;24.372;2023-12-22T12:15:08;85024.38;;;8.83;61.82
11678;BME280;5895;41.950;24.372;2023-12-22T12:17:40;85018.84;;;9.36;63.57
11678;BME280;5895;41.950;24.372;2023-12-22T12:20:09;85011.78;;;9.57;59.87
11678;BME280;5895;41.950;24.372;2023-12-22T12:22:36;85004.66;;;9.88;58.77
11678;BME280;5895;41.950;24.372;2023-12-22T12:25:09;85005.06;;;10.10;58.85
11678;BME280;5895;41.950;24.372;2023-12-22T12:27:37;85014.03;;;10.23;58.56
11678;BME280;5895;41.950;24.372;2023-12-22T12:30:10;85014.19;;;9.92;60.00
11678;BME280;5895;41.950;24.372;2023-12-22T12:32:38;85014.66;;;9.50;60.59
11678;BME280;5895;41.950;24.372;2023-12-22T12:35:05;85019.41;;;9.17;61.32
11678;BME280;5895;41.950;24.372;2023-12-22T12:37:32;85028.53;;;8.79;62.04
11678;BME280;5895;41.950;24.372;2023-12-22T12:40:01;85043.00;;;8.44;63.05
11678;BME280;5895;41.950;24.372;2023-12-22T12:42:35;85036.75;;;8.10;63.61
11678;BME280;5895;41.950;24.372;2023-12-22T12:45:03;85038.25;;;7.80;64.09
11678;BME280;5895;41.950;24.372;2023-12-22T12:47:31;85053.16;;;7.58;65.08
11678;BME280;5895;41.950;24.372;2023-12-22T12:49:58;85055.13;;;7.40;65.81
11678;BME280;5895;41.950;24.372;2023-12-22T12:52:25;85045.03;;;7.29;66.12
11678;BME280;5895;41.950;24.372;2023-12-22T12:54:53;85047.28;;;7.15;65.91
11678;BME280;5895;41.950;24.372;2023-12-22T12:57:21;85049.28;;;6.98;65.71
11678;BME280;5895;41.950;24.372;2023-12-22T12:59:50;85056.66;;;6.84;65.43
11678;BME280;5895;41.950;24.372;2023-12-22T13:02:18;85062.72;;;6.68;66.37
11678;BME280;5895;41.950;24.372;2023-12-22T13:04:46;85063.41;;;6.53;66.32
11678;BME280;5895;41.950;24.372;2023-12-22T13:07:13;85052.22;;;6.37;66.35
11678;BME280;5895;41.950;24.372;2023-12-22T13:09:42;85067.28;;;6.18;66.79
11678;BME280;5895;41.950;24.372;2023-12-22T13:12:09;85065.34;;;6.03;67.37